sensor_id;sensor_type;location;lat;lon;timestamp;pressure;altitude;pressure_sealevel;temperature;humidity
30554;BME280;17335;50.720;7.452;2023-05-25T00:01:38;100119.06;;;5.35;100.00
30554;BME280;17335;50.720;7.452;2023-05-25T00:04:04;100120.56;;;5.24;100.00
30554;BME280;17335;50.720;7.452;2023-05-25T00:06:31;100123.13;;;5.26;100.00
30554;BME280;17335;50.720;7.452;2023-05-25T00:08:58;100119.59;;;5.25;100.00
30554;BME280;17335;50.720;7.452;2023-05-25T00:11:25;100117.53;;;5.31;100.00
30554;BME280;17335;50.720;7.452;2023-05-25T00:13:52;100117.34;;;5.34;100.00
30554;BME280;17335;50.720;7.452;2023-05-25T00:16:19;100117.25;;;5.35;100.00
30554;BME280;17335;50.720;7.452;2023-05-25T00:18:46;100120.59;;;5.39;100.00
30554;BME280;17335;50.720;7.452;2023-05-25T00:21:14;100111.25;;;5.46;100.00
30554;BME280;17335;50.720;7.452;2023-05-25T00:23:41;100107.84;;;5.44;100.00
30554;BME280;17335;50.720;7.452;2023-05-25T00:26:08;100108.78;;;5.43;100.00
30554;BME280;17335;50.720;7.452;2023-05-25T00:28:34;100114.03;;;5.44;100.00
30554;BME280;17335;50.720;7.452;2023-05-25T00:31:01;100111.44;;;5.43;100.00
30554;BME280;17335;50.720;7.452;2023-05-25T00:33:28;100119.25;;;5.46;100.00
30554;BME280;17335;50.720;7.452;2023-05-25T00:35:55;100106.69;;;5.48;100.00
30554;BME280;17335;50.720;7.452;2023-05-25T00:38:22;100111.66;;;5.40;100.00
30554;BME280;17335;50.720;7.452;2023-05-25T00:40:53;100106.19;;;5.27;100.00
30554;BME280;17335;50.720;7.452;2023-05-25T00:43:20;100105.72;;;5.20;100.00
30554;BME280;17335;50.720;7.452;2023-05-25T00:45:48;100104.09;;;5.18;100.00
30554;BME280;17335;50.720;7.452;2023-05-25T00:48:15;100102.47;;;5.15;100.00
30554;BME280;17335;50.720;7.452;2023-05-25T00:50:42;100102.03;;;5.23;100.00
30554;BME280;17335;50.720;7.452;2023-05-25T00:53:12;100105.88;;;5.17;100.00
30554;BME280;17335;50.720;7.452;2023-05-25T00:56:17;100108.16;;;5.09;100.00
30554;BME280;17335;50.720;7.452;2023-05-25T00:58:49;100113.84;;;5.03;100.00
30554;BME280;17335;50.720;7.452;2023-05-25T01:01:17;100106.53;;;5.06;100.00
30554;BME280;17335;50.720;7.452;2023-05-25T01:03:47;100119.00;;;5.06;100.00
30554;BME280;17335;50.720;7.452;2023-05-25T01:06:20;100114.19;;;4.97;100.00
30554;BME280;17335;50.720;7.452;2023-05-25T01:08:53;100110.84;;;4.93;100.00
30554;BME280;17335;50.720;7.452;2023-05-25T01:11:30;100109.91;;;4.94;100.00
30554;BME280;17335;50.720;7.452;2023-05-25T01:13:58;100114.97;;;4.99;100.00
30554;BME280;17335;50.720;7.452;2023-05-25T01:16:25;100117.56;;;5.00;100.00
30554;BME280;17335;50.720;7.452;2023-05-25T01:18:52;100113.25;;;4.98;100.00
30554;BME280;17335;50.720;7.452;2023-05-25T01:21:26;100122.97;;;4.99;100.00
30554;BME280;17335;50.720;7.452;2023-05-25T01:23:57;100115.75;;;5.01;100.00
30554;BME280;17335;50.720;7.452;2023-05-25T01:26:32;100106.78;;;5.02;100.00
30554;BME280;17335;50.720;7.452;2023-05-25T01:29:00;100107.66;;;5.02;100.00
30554;BME280;17335;50.720;7.452;2023-05-25T01:31:28;100112.13;;;5.02;100.00
30554;BME280;17335;50.720;7.452;2023-05-25T01:33:55;100117.56;;;5.00;100.00
30554;BME280;17335;50.720;7.452;2023-05-25T01:36:22;100115.91;;;4.98;100.00
30554;BME280;17335;50.720;7.452;2023-05-25T01:38:48;100114.41;;;4.94;100.00
30554;BME280;17335;50.720;7.452;2023-05-25T01:41:16;100120.06;;;4.87;100.00
30554;BME280;17335;50.720;7.452;2023-05-25T01:43:43;100122.13;;;4.82;100.00
30554;BME280;17335;50.720;7.452;2023-05-25T01:46:21;100121.59;;;4.92;100.00
30554;BME280;17335;50.720;7.452;2023-05-25T01:49:55;100123.09;;;4.81;100.00
30554;BME280;17335;50.720;7.452;2023-05-25T01:54:50;100122.00;;;4.69;100.00
30554;BME280;17335;50.720;7.452;2023-05-25T01:57:18;100119.75;;;4.62;100.00
30554;BME280;17335;50.720;7.452;2023-05-25T01:59:46;100112.25;;;4.54;100.00
30554;BME280;17335;50.720;7.452;2023-05-25T02:02:15;100112.50;;;4.49;100.00
30554;BME280;17335;50.720;7.452;2023-05-25T02:04:43;100114.38;;;4.47;100.00
30554;BME280;17335;50.720;7.452;2023-05-25T02:07:10;100112.31;;;4.53;100.00
30554;BME280;17335;50.720;7.452;2023-05-25T02:09:36;100106.84;;;4.56;100.00
30554;BME280;17335;50.720;7.452;2023-05-25T02:12:03;100115.41;;;4.61;100.00
30554;BME280;17335;50.720;7.452;2023-05-25T02:14:31;100111.53;;;4.66;100.00
30554;BME280;17335;50.720;7.452;2023-05-25T02:16:58;100118.06;;;4.61;100.00
30554;BME280;17335;50.720;7.452;2023-05-25T02:19:27;100112.41;;;4.51;100.00
30554;BME280;17335;50.720;7.452;2023-05-25T02:21:54;100114.22;;;4.50;100.00
30554;BME280;17335;50.720;7.452;2023-05-25T02:24:23;100123.72;;;4.55;100.00
30554;BME280;17335;50.720;7.452;2023-05-25T02:26:50;100121.06;;;4.55;100.00
30554;BME280;17335;50.720;7.452;2023-05-25T02:29:17;100121.31;;;4.50;100.00
30554;BME280;17335;50.720;7.452;2023-05-25T02:31:45;100122.06;;;4.52;100.00
30554;BME280;17335;50.720;7.452;2023-05-25T02:34:12;100122.00;;;4.54;100.00
30554;BME280;17335;50.720;7.452;2023-05-25T02:36:39;100122.88;;;4.54;100.00
30554;BME280;17335;50.720;7.452;2023-05-25T02:39:09;100121.16;;;4.53;100.00
30554;BME280;17335;50.720;7.452;2023-05-25T02:41:36;100126.38;;;4.55;100.00
30554;BME280;17335;50.720;7.452;2023-05-25T02:44:03;100122.97;;;4.53;100.00
30554;BME280;17335;50.720;7.452;2023-05-25T02:46:31;100125.09;;;4.46;100.00
30554;BME280;17335;50.720;7.452;2023-05-25T02:48:59;100127.00;;;4.44;100.00
30554;BME280;17335;50.720;7.452;2023-05-25T02:51:26;100125.25;;;4.43;100.00
30554;BME280;17335;50.720;7.452;2023-05-25T02:53:53;100129.22;;;4.36;100.00
30554;BME280;17335;50.720;7.452;2023-05-25T02:56:20;100130.06;;;4.36;100.00
30554;BME280;17335;50.720;7.452;2023-05-25T02:58:48;100137.13;;;4.37;100.00
30554;BME280;17335;50.720;7.452;2023-05-25T03:01:15;100130.22;;;4.33;100.00
30554;BME280;17335;50.720;7.452;2023-05-25T03:03:46;100132.13;;;4.31;100.00
30554;BME280;17335;50.720;7.452;2023-05-25T03:06:13;100146.28;;;4.31;100.00
30554;BME280;17335;50.720;7.452;2023-05-25T03:08:40;100135.91;;;4.27;100.00
30554;BME280;17335;50.720;7.452;2023-05-25T03:11:06;100142.75;;;4.31;100.00
30554;BME280;17335;50.720;7.452;2023-05-25T03:13:33;100132.72;;;4.36;100.00
30554;BME280;17335;50.720;7.452;2023-05-25T03:16:00;100145.09;;;4.37;100.00
30554;BME280;17335;50.720;7.452;2023-05-25T03:18:27;100139.00;;;4.35;100.00
30554;BME280;17335;50.720;7.452;2023-05-25T03:20:53;100132.13;;;4.31;100.00
30554;BME280;17335;50.720;7.452;2023-05-25T03:23:20;100145.16;;;4.20;100.00
30554;BME280;17335;50.720;7.452;2023-05-25T03:25:47;100145.41;;;4.15;100.00
30554;BME280;17335;50.720;7.452;2023-05-25T03:28:13;100153.06;;;4.21;100.00
30554;BME280;17335;50.720;7.452;2023-05-25T03:30:40;100154.75;;;4.22;100.00
30554;BME280;17335;50.720;7.452;2023-05-25T03:33:06;100149.88;;;4.30;100.00
30554;BME280;17335;50.720;7.452;2023-05-25T03:35:33;100160.00;;;4.24;100.00
30554;BME280;17335;50.720;7.452;2023-05-25T03:37:59;100156.97;;;4.14;100.00
30554;BME280;17335;50.720;7.452;2023-05-25T03:40:26;100159.81;;;4.11;100.00
30554;BME280;17335;50.720;7.452;2023-05-25T03:42:52;100161.53;;;4.12;100.00
30554;BME280;17335;50.720;7.452;2023-05-25T03:45:19;100150.66;;;4.17;100.00
30554;BME280;17335;50.720;7.452;2023-05-25T03:47:46;100157.50;;;4.21;100.00
30554;BME280;17335;50.720;7.452;2023-05-25T03:50:13;100168.91;;;4.23;100.00
30554;BME280;17335;50.720;7.452;2023-05-25T03:52:40;100167.97;;;4.24;100.00
30554;BME280;17335;50.720;7.452;2023-05-25T03:55:06;100166.44;;;4.20;100.00
30554;BME280;17335;50.720;7.452;2023-05-25T03:57:33;100177.31;;;4.15;100.00
30554;BME280;17335;50.720;7.452;2023-05-25T03:59:59;100166.59;;;4.17;100.00
30554;BME280;17335;50.720;7.452;2023-05-25T04:02:26;100164.69;;;4.19;100.00
30554;BME280;17335;50.720;7.452;2023-05-25T04:04:53;100167.72;;;4.28;100.00
30554;BME280;17335;50.720;7.452;2023-05-25T04:07:21;100170.81;;;4.37;100.00
30554;BME280;17335;50.720;7.452;2023-05-25T04:09:48;100160.25;;;4.67;100.00
30554;BME280;17335;50.720;7.452;2023-05-25T04:12:14;100172.16;;;4.76;100.00
30554;BME280;17335;50.720;7.452;2023-05-25T04:14:42;100166.50;;;4.82;100.00
30554;BME280;17335;50.720;7.452;2023-05-25T04:17:09;100164.00;;;4.79;100.00
30554;BME280;17335;50.720;7.452;2023-05-25T04:19:35;100179.13;;;4.78;100.00
30554;BME280;17335;50.720;7.452;2023-05-25T04:22:02;100177.41;;;4.77;100.00
30554;BME280;17335;50.720;7.452;2023-05-25T04:24:29;100158.78;;;4.77;100.00
30554;BME280;17335;50.720;7.452;2023-05-25T04:26:57;100163.75;;;4.83;100.00
30554;BME280;17335;50.720;7.452;2023-05-25T04:29:24;100173.94;;;4.91;100.00
30554;BME280;17335;50.720;7.452;2023-05-25T04:31:51;100175.47;;;5.11;100.00
30554;BME280;17335;50.720;7.452;2023-05-25T04:34:19;100178.06;;;5.27;100.00
30554;BME280;17335;50.720;7.452;2023-05-25T04:36:47;100178.34;;;5.53;100.00
30554;BME280;17335;50.720;7.452;2023-05-25T04:39:15;100177.50;;;5.67;100.00
30554;BME280;17335;50.720;7.452;2023-05-25T04:41:42;100185.97;;;5.73;100.00
30554;BME280;17335;50.720;7.452;2023-05-25T04:44:09;100191.38;;;6.02;100.00
30554;BME280;17335;50.720;7.452;2023-05-25T04:46:36;100196.19;;;6.53;100.00
30554;BME280;17335;50.720;7.452;2023-05-25T04:49:04;100191.31;;;7.54;100.00
30554;BME280;17335;50.720;7.452;2023-05-25T04:51:31;100176.09;;;9.65;100.00
30554;BME280;17335;50.720;7.452;2023-05-25T04:53:58;100157.28;;;11.85;100.00
30554;BME280;17335;50.720;7.452;2023-05-25T04:56:25;100128.63;;;13.55;100.00
30554;BME280;17335;50.720;7.452;2023-05-25T04:58:52;100121.56;;;14.56;100.00
30554;BME280;17335;50.720;7.452;2023-05-25T05:01:19;100129.84;;;15.45;100.00
30554;BME280;17335;50.720;7.452;2023-05-25T05:03:46;100129.72;;;16.25;100.00
30554;BME280;17335;50.720;7.452;2023-05-25T05:06:12;100135.75;;;16.53;100.00
30554;BME280;17335;50.720;7.452;2023-05-25T05:08:39;100132.69;;;17.15;100.00
30554;BME280;17335;50.720;7.452;2023-05-25T05:11:06;100138.97;;;17.40;100.00
30554;BME280;17335;50.720;7.452;2023-05-25T05:13:33;100142.66;;;16.98;100.00
30554;BME280;17335;50.720;7.452;2023-05-25T05:16:00;100143.16;;;16.85;100.00
30554;BME280;17335;50.720;7.452;2023-05-25T05:18:26;100138.78;;;16.50;100.00
30554;BME280;17335;50.720;7.452;2023-05-25T05:20:54;100145.81;;;16.35;100.00
30554;BME280;17335;50.720;7.452;2023-05-25T05:23:20;100140.97;;;16.12;100.00
30554;BME280;17335;50.720;7.452;2023-05-25T05:25:47;100134.03;;;15.83;100.00
30554;BME280;17335;50.720;7.452;2023-05-25T05:28:13;100135.28;;;15.89;100.00
30554;BME280;17335;50.720;7.452;2023-05-25T05:30:40;100126.94;;;15.64;100.00
30554;BME280;17335;50.720;7.452;2023-05-25T05:33:06;100126.09;;;15.64;100.00
30554;BME280;17335;50.720;7.452;2023-05-25T05:35:33;100140.56;;;15.28;100.00
30554;BME280;17335;50.720;7.452;2023-05-25T05:38:00;100135.06;;;15.82;100.00
30554;BME280;17335;50.720;7.452;2023-05-25T05:40:26;100126.94;;;15.64;100.00
30554;BME280;17335;50.720;7.452;2023-05-25T05:42:53;100131.88;;;15.87;100.00
30554;BME280;17335;50.720;7.452;2023-05-25T05:45:19;100135.69;;;15.76;100.00
30554;BME280;17335;50.720;7.452;2023-05-25T05:47:46;100144.28;;;15.98;100.00
30554;BME280;17335;50.720;7.452;2023-05-25T05:50:13;100142.63;;;16.05;100.00
30554;BME280;17335;50.720;7.452;2023-05-25T05:52:40;100154.28;;;15.97;100.00
30554;BME280;17335;50.720;7.452;2023-05-25T05:55:06;100155.88;;;16.08;100.00
30554;BME280;17335;50.720;7.452;2023-05-25T05:57:34;100170.94;;;16.10;100.00
30554;BME280;17335;50.720;7.452;2023-05-25T06:00:01;100171.09;;;16.09;100.00
30554;BME280;17335;50.720;7.452;2023-05-25T06:02:30;100162.91;;;16.27;100.00
30554;BME280;17335;50.720;7.452;2023-05-25T06:04:56;100160.75;;;16.39;100.00
30554;BME280;17335;50.720;7.452;2023-05-25T06:07:23;100174.09;;;16.32;100.00
30554;BME280;17335;50.720;7.452;2023-05-25T06:09:50;100177.19;;;15.85;100.00
30554;BME280;17335;50.720;7.452;2023-05-25T06:12:16;100170.63;;;15.87;100.00
30554;BME280;17335;50.720;7.452;2023-05-25T06:14:43;100174.25;;;15.34;100.00
30554;BME280;17335;50.720;7.452;2023-05-25T06:17:09;100182.72;;;15.21;100.00
30554;BME280;17335;50.720;7.452;2023-05-25T06:19:36;100184.13;;;15.07;100.00
30554;BME280;17335;50.720;7.452;2023-05-25T06:22:03;100179.91;;;14.77;100.00
30554;BME280;17335;50.720;7.452;2023-05-25T06:24:30;100189.53;;;14.61;100.00
30554;BME280;17335;50.720;7.452;2023-05-25T06:26:56;100187.22;;;14.29;100.00
30554;BME280;17335;50.720;7.452;2023-05-25T06:29:23;100182.63;;;14.02;100.00
30554;BME280;17335;50.720;7.452;2023-05-25T06:31:50;100192.38;;;13.65;100.00
30554;BME280;17335;50.720;7.452;2023-05-25T06:34:16;100189.09;;;13.52;100.00
30554;BME280;17335;50.720;7.452;2023-05-25T06:36:45;100178.28;;;13.23;100.00
30554;BME280;17335;50.720;7.452;2023-05-25T06:39:13;100192.75;;;13.02;100.00
30554;BME280;17335;50.720;7.452;2023-05-25T06:41:40;100199.38;;;12.88;100.00
30554;BME280;17335;50.720;7.452;2023-05-25T06:44:06;100201.59;;;12.73;100.00
30554;BME280;17335;50.720;7.452;2023-05-25T06:46:33;100196.59;;;13.00;100.00
30554;BME280;17335;50.720;7.452;2023-05-25T06:49:01;100202.69;;;13.11;100.00
30554;BME280;17335;50.720;7.452;2023-05-25T06:51:28;100193.78;;;13.40;100.00
30554;BME280;17335;50.720;7.452;2023-05-25T06:53:55;100184.09;;;13.28;100.00
30554;BME280;17335;50.720;7.452;2023-05-25T06:56:22;100190.94;;;13.32;100.00
30554;BME280;17335;50.720;7.452;2023-05-25T06:58:49;100193.09;;;13.38;100.00
30554;BME280;17335;50.720;7.452;2023-05-25T07:01:16;100189.81;;;13.54;100.00
30554;BME280;17335;50.720;7.452;2023-05-25T07:03:43;100187.34;;;13.22;100.00
30554;BME280;17335;50.720;7.452;2023-05-25T07:06:09;100189.38;;;13.10;100.00
30554;BME280;17335;50.720;7.452;2023-05-25T07:08:37;100192.34;;;13.07;100.00
30554;BME280;17335;50.720;7.452;2023-05-25T07:11:04;100192.63;;;13.13;100.00
30554;BME280;17335;50.720;7.452;2023-05-25T07:13:30;100195.31;;;13.23;100.00
30554;BME280;17335;50.720;7.452;2023-05-25T07:15:57;100190.63;;;13.25;100.00
30554;BME280;17335;50.720;7.452;2023-05-25T07:18:24;100193.50;;;13.34;100.00
30554;BME280;17335;50.720;7.452;2023-05-25T07:20:51;100193.22;;;13.37;100.00
30554;BME280;17335;50.720;7.452;2023-05-25T07:23:18;100186.22;;;13.73;100.00
30554;BME280;17335;50.720;7.452;2023-05-25T07:25:45;100193.16;;;13.85;100.00
30554;BME280;17335;50.720;7.452;2023-05-25T07:28:12;100188.94;;;13.73;100.00
30554;BME280;17335;50.720;7.452;2023-05-25T07:30:39;100192.91;;;13.69;100.00
30554;BME280;17335;50.720;7.452;2023-05-25T07:33:06;100190.94;;;13.71;100.00
30554;BME280;17335;50.720;7.452;2023-05-25T07:35:33;100186.22;;;13.73;100.00
30554;BME280;17335;50.720;7.452;2023-05-25T07:38:02;100195.34;;;13.72;100.00
30554;BME280;17335;50.720;7.452;2023-05-25T07:40:29;100192.31;;;13.85;100.00
30554;BME280;17335;50.720;7.452;2023-05-25T07:42:56;100194.47;;;13.81;100.00
30554;BME280;17335;50.720;7.452;2023-05-25T07:45:23;100196.13;;;14.02;100.00
30554;BME280;17335;50.720;7.452;2023-05-25T07:47:50;100199.81;;;14.01;100.00
30554;BME280;17335;50.720;7.452;2023-05-25T07:50:16;100191.16;;;13.97;100.00
30554;BME280;17335;50.720;7.452;2023-05-25T07:52:43;100192.59;;;13.92;100.00
30554;BME280;17335;50.720;7.452;2023-05-25T07:55:10;100193.91;;;13.87;100.00
30554;BME280;17335;50.720;7.452;2023-05-25T07:57:37;100201.84;;;13.79;100.00
30554;BME280;17335;50.720;7.452;2023-05-25T08:00:04;100193.34;;;13.74;100.00
30554;BME280;17335;50.720;7.452;2023-05-25T08:02:33;100196.28;;;13.91;100.00
30554;BME280;17335;50.720;7.452;2023-05-25T08:05:00;100196.53;;;14.07;100.00
30554;BME280;17335;50.720;7.452;2023-05-25T08:07:32;100193.09;;;14.15;100.00
30554;BME280;17335;50.720;7.452;2023-05-25T08:09:58;100195.59;;;14.36;100.00
30554;BME280;17335;50.720;7.452;2023-05-25T08:12:26;100196.16;;;14.30;100.00
30554;BME280;17335;50.720;7.452;2023-05-25T08:15:12;100194.13;;;14.41;100.00
30554;BME280;17335;50.720;7.452;2023-05-25T08:17:39;100195.63;;;14.26;100.00
30554;BME280;17335;50.720;7.452;2023-05-25T08:20:07;100195.94;;;14.51;100.00
30554;BME280;17335;50.720;7.452;2023-05-25T08:22:34;100190.78;;;14.67;100.00
30554;BME280;17335;50.720;7.452;2023-05-25T08:25:03;100194.16;;;14.69;100.00
30554;BME280;17335;50.720;7.452;2023-05-25T08:27:30;100189.53;;;14.61;100.00
30554;BME280;17335;50.720;7.452;2023-05-25T08:30:01;100191.31;;;14.71;100.00
30554;BME280;17335;50.720;7.452;2023-05-25T08:32:28;100191.44;;;14.97;100.00
30554;BME280;17335;50.720;7.452;2023-05-25T08:34:54;100189.13;;;15.02;100.00
30554;BME280;17335;50.720;7.452;2023-05-25T08:37:21;100191.19;;;15.18;100.00
30554;BME280;17335;50.720;7.452;2023-05-25T08:39:48;100192.69;;;15.38;100.00
30554;BME280;17335;50.720;7.452;2023-05-25T08:42:15;100197.50;;;15.27;100.00
30554;BME280;17335;50.720;7.452;2023-05-25T08:44:42;100199.19;;;15.10;100.00
30554;BME280;17335;50.720;7.452;2023-05-25T08:47:11;100199.34;;;15.08;100.00
30554;BME280;17335;50.720;7.452;2023-05-25T08:49:38;100195.47;;;15.11;100.00
30554;BME280;17335;50.720;7.452;2023-05-25T08:52:12;100188.91;;;15.31;100.00
30554;BME280;17335;50.720;7.452;2023-05-25T08:54:42;100192.91;;;15.45;100.00
30554;BME280;17335;50.720;7.452;2023-05-25T08:57:36;100194.34;;;15.49;100.00
30554;BME280;17335;50.720;7.452;2023-05-25T09:00:06;100193.91;;;15.62;100.00
30554;BME280;17335;50.720;7.452;2023-05-25T09:02:53;100186.34;;;15.84;100.00
30554;BME280;17335;50.720;7.452;2023-05-25T09:05:22;100188.56;;;15.88;100.00
30554;BME280;17335;50.720;7.452;2023-05-25T09:07:49;100184.22;;;16.22;100.00
30554;BME280;17335;50.720;7.452;2023-05-25T09:10:17;100182.56;;;16.29;100.00
30554;BME280;17335;50.720;7.452;2023-05-25T09:12:44;100182.50;;;16.47;100.00
30554;BME280;17335;50.720;7.452;2023-05-25T09:15:11;100174.75;;;16.26;100.00
30554;BME280;17335;50.720;7.452;2023-05-25T09:17:38;100177.59;;;16.50;100.00
30554;BME280;17335;50.720;7.452;2023-05-25T09:20:10;100180.25;;;16.42;100.00
30554;BME280;17335;50.720;7.452;2023-05-25T09:22:42;100192.03;;;16.33;100.00
30554;BME280;17335;50.720;7.452;2023-05-25T09:25:10;100189.31;;;15.99;100.00
30554;BME280;17335;50.720;7.452;2023-05-25T09:27:38;100181.44;;;15.69;100.00
30554;BME280;17335;50.720;7.452;2023-05-25T09:30:05;100179.94;;;16.11;100.00
30554;BME280;17335;50.720;7.452;2023-05-25T09:32:32;100183.97;;;16.41;100.00
30554;BME280;17335;50.720;7.452;2023-05-25T09:35:11;100177.00;;;16.73;100.00
30554;BME280;17335;50.720;7.452;2023-05-25T09:37:39;100182.44;;;16.81;100.00
30554;BME280;17335;50.720;7.452;2023-05-25T09:40:07;100186.50;;;16.43;100.00
30554;BME280;17335;50.720;7.452;2023-05-25T09:42:35;100176.44;;;16.27;100.00
30554;BME280;17335;50.720;7.452;2023-05-25T09:45:02;100178.03;;;16.38;100.00
30554;BME280;17335;50.720;7.452;2023-05-25T09:47:29;100181.81;;;16.53;100.00
30554;BME280;17335;50.720;7.452;2023-05-25T09:49:56;100186.41;;;16.53;100.00
30554;BME280;17335;50.720;7.452;2023-05-25T09:52:24;100181.81;;;16.53;100.00
30554;BME280;17335;50.720;7.452;2023-05-25T09:54:51;100176.06;;;16.56;100.00
30554;BME280;17335;50.720;7.452;2023-05-25T09:57:19;100170.19;;;16.69;100.00
30554;BME280;17335;50.720;7.452;2023-05-25T09:59:46;100174.00;;;16.84;100.00
30554;BME280;17335;50.720;7.452;2023-05-25T10:02:14;100170.47;;;17.09;100.00
30554;BME280;17335;50.720;7.452;2023-05-25T10:04:41;100167.13;;;17.23;100.00
30554;BME280;17335;50.720;7.452;2023-05-25T10:07:08;100172.56;;;17.48;100.00
30554;BME280;17335;50.720;7.452;2023-05-25T10:09:38;100171.06;;;17.45;98.92
30554;BME280;17335;50.720;7.452;2023-05-25T10:12:09;100168.50;;;17.60;99.04
30554;BME280;17335;50.720;7.452;2023-05-25T10:14:37;100166.81;;;17.92;100.00
30554;BME280;17335;50.720;7.452;2023-05-25T10:17:05;100171.22;;;17.85;97.85
30554;BME280;17335;50.720;7.452;2023-05-25T10:20:02;100167.97;;;17.56;96.00
30554;BME280;17335;50.720;7.452;2023-05-25T10:22:50;100160.50;;;17.67;94.55
30554;BME280;17335;50.720;7.452;2023-05-25T10:28:07;100151.34;;;17.92;94.65
30554;BME280;17335;50.720;7.452;2023-05-25T10:30:38;100156.38;;;18.20;92.20
30554;BME280;17335;50.720;7.452;2023-05-25T10:33:07;100156.19;;;18.69;94.29
30554;BME280;17335;50.720;7.452;2023-05-25T10:35:34;100159.81;;;18.93;85.81
30554;BME280;17335;50.720;7.452;2023-05-25T10:38:17;100157.03;;;19.01;91.45
30554;BME280;17335;50.720;7.452;2023-05-25T10:40:48;100157.47;;;18.82;87.87
30554;BME280;17335;50.720;7.452;2023-05-25T10:43:17;100157.28;;;18.52;99.76
30554;BME280;17335;50.720;7.452;2023-05-25T10:45:45;100159.41;;;18.65;92.94
30554;BME280;17335;50.720;7.452;2023-05-25T10:48:13;100159.34;;;18.89;89.29
30554;BME280;17335;50.720;7.452;2023-05-25T10:50:40;100155.75;;;19.20;87.72
30554;BME280;17335;50.720;7.452;2023-05-25T10:53:11;100151.72;;;19.54;79.97
30554;BME280;17335;50.720;7.452;2023-05-25T10:55:48;100168.91;;;19.08;83.24
30554;BME280;17335;50.720;7.452;2023-05-25T10:58:16;100149.38;;;19.28;79.06
30554;BME280;17335;50.720;7.452;2023-05-25T11:00:57;100156.44;;;19.14;80.06
30554;BME280;17335;50.720;7.452;2023-05-25T11:06:16;100146.59;;;19.36;78.67
30554;BME280;17335;50.720;7.452;2023-05-25T11:08:57;100150.84;;;19.77;82.31
30554;BME280;17335;50.720;7.452;2023-05-25T11:14:21;100144.34;;;19.40;78.86
30554;BME280;17335;50.720;7.452;2023-05-25T11:19:41;100142.25;;;20.03;76.15
30554;BME280;17335;50.720;7.452;2023-05-25T11:22:31;100141.59;;;20.16;71.97
30554;BME280;17335;50.720;7.452;2023-05-25T11:25:00;100140.81;;;19.77;68.28
30554;BME280;17335;50.720;7.452;2023-05-25T11:27:28;100131.25;;;19.96;71.73
30554;BME280;17335;50.720;7.452;2023-05-25T11:29:57;100129.84;;;20.00;72.94
30554;BME280;17335;50.720;7.452;2023-05-25T11:32:25;100120.66;;;20.01;70.84
30554;BME280;17335;50.720;7.452;2023-05-25T11:34:53;100119.69;;;20.09;71.97
30554;BME280;17335;50.720;7.452;2023-05-25T11:37:21;100123.56;;;19.62;72.96
30554;BME280;17335;50.720;7.452;2023-05-25T11:39:51;100114.72;;;19.98;77.84
30554;BME280;17335;50.720;7.452;2023-05-25T11:42:22;100118.19;;;19.54;69.67
30554;BME280;17335;50.720;7.452;2023-05-25T11:44:49;100112.41;;;19.34;72.15
30554;BME280;17335;50.720;7.452;2023-05-25T11:47:20;100121.56;;;19.56;78.91
30554;BME280;17335;50.720;7.452;2023-05-25T11:49:49;100113.66;;;19.99;74.30
30554;BME280;17335;50.720;7.452;2023-05-25T11:52:16;100108.75;;;20.69;80.18
30554;BME280;17335;50.720;7.452;2023-05-25T11:54:44;100111.94;;;20.72;71.93
30554;BME280;17335;50.720;7.452;2023-05-25T11:57:20;100115.47;;;19.92;76.19
30554;BME280;17335;50.720;7.452;2023-05-25T11:59:51;100112.66;;;19.24;78.83
30554;BME280;17335;50.720;7.452;2023-05-25T12:02:19;100109.16;;;19.91;85.54
30554;BME280;17335;50.720;7.452;2023-05-25T12:04:54;100108.59;;;19.96;76.04
30554;BME280;17335;50.720;7.452;2023-05-25T12:07:21;100102.94;;;19.97;81.82
30554;BME280;17335;50.720;7.452;2023-05-25T12:09:48;100107.78;;;20.61;77.51
30554;BME280;17335;50.720;7.452;2023-05-25T12:12:15;100106.97;;;20.46;74.91
30554;BME280;17335;50.720;7.452;2023-05-25T12:14:48;100111.69;;;20.22;76.24
30554;BME280;17335;50.720;7.452;2023-05-25T12:17:16;100113.13;;;20.18;72.61
30554;BME280;17335;50.720;7.452;2023-05-25T12:19:44;100110.41;;;20.18;72.23
30554;BME280;17335;50.720;7.452;2023-05-25T12:22:11;100101.81;;;20.21;71.66
30554;BME280;17335;50.720;7.452;2023-05-25T12:24:39;100103.91;;;20.19;68.11
30554;BME280;17335;50.720;7.452;2023-05-25T12:27:16;100103.13;;;20.40;71.67
30554;BME280;17335;50.720;7.452;2023-05-25T12:29:48;100090.06;;;20.87;66.64
30554;BME280;17335;50.720;7.452;2023-05-25T12:32:15;100092.38;;;20.90;72.38
30554;BME280;17335;50.720;7.452;2023-05-25T12:34:41;100094.66;;;20.65;70.17
30554;BME280;17335;50.720;7.452;2023-05-25T12:37:21;100092.00;;;20.57;69.48
30554;BME280;17335;50.720;7.452;2023-05-25T12:39:48;100092.91;;;20.79;68.79
30554;BME280;17335;50.720;7.452;2023-05-25T12:42:16;100095.19;;;20.97;66.46
30554;BME280;17335;50.720;7.452;2023-05-25T12:44:44;100093.56;;;20.81;73.01
30554;BME280;17335;50.720;7.452;2023-05-25T12:47:20;100098.34;;;20.42;72.04
30554;BME280;17335;50.720;7.452;2023-05-25T12:52:41;100087.41;;;19.68;81.77
30554;BME280;17335;50.720;7.452;2023-05-25T12:55:28;100094.31;;;20.23;80.12
30554;BME280;17335;50.720;7.452;2023-05-25T13:00:25;100085.41;;;20.66;81.61
30554;BME280;17335;50.720;7.452;2023-05-25T13:02:53;100089.81;;;20.82;82.00
30554;BME280;17335;50.720;7.452;2023-05-25T13:05:24;100089.69;;;20.39;79.00
30554;BME280;17335;50.720;7.452;2023-05-25T13:07:53;100082.00;;;20.79;79.96
30554;BME280;17335;50.720;7.452;2023-05-25T13:10:20;100089.38;;;20.64;75.46
30554;BME280;17335;50.720;7.452;2023-05-25T13:12:48;100079.16;;;20.36;77.59